Time;durP1;ratioP1;P1;durP2;ratioP2;P2;SDS_P1;SDS_P2;PMS_P1;PMS_P2;Temp;Humidity;BMP_temperature;BMP_pressure;BME280_temperature;BME280_humidity;BME280_pressure;Samples;Min_cycle;Max_cycle;Signal;HPM_P1;HPM_P2
2023/03/28 00:01:31;;;;;;;6.63;2.67;;;4.30;99.90;;;;;;5030719;28;20169;-73
2023/03/28 00:03:57;;;;;;;6.23;1.40;;;4.30;99.90;;;;;;5029537;28;20268;-73
2023/03/28 00:06:25;;;;;;;5.50;1.87;;;4.20;99.90;;;;;;5016389;28;20265;-73
2023/03/28 00:08:50;;;;;;;6.20;1.65;;;4.20;99.90;;;;;;5009407;28;20185;-73
2023/03/28 00:11:19;;;;;;;4.03;1.33;;;4.20;99.90;;;;;;5011004;28;20166;-73
2023/03/28 00:13:56;;;;;;;3.78;1.73;;;4.10;99.90;;;;;;4993343;28;20213;-74
2023/03/28 00:16:30;;;;;;;4.60;1.50;;;4.10;99.90;;;;;;5013991;28;20564;-73
2023/03/28 00:18:59;;;;;;;5.20;1.83;;;4.10;99.90;;;;;;5011337;28;20249;-73
2023/03/28 00:21:31;;;;;;;7.15;1.42;;;4.10;99.90;;;;;;5009827;28;20577;-74
2023/03/28 00:24:00;;;;;;;3.05;1.23;;;4.10;99.90;;;;;;5009807;28;20186;-73
2023/03/28 00:26:31;;;;;;;4.82;1.70;;;4.10;99.90;;;;;;5009320;28;20301;-74
2023/03/28 00:29:00;;;;;;;3.78;1.45;;;4.00;99.90;;;;;;5011727;28;20661;-74
2023/03/28 00:31:26;;;;;;;5.28;1.42;;;4.00;99.90;;;;;;5013237;28;20181;-73
2023/03/28 00:33:53;;;;;;;3.90;1.20;;;4.00;99.90;;;;;;5013479;28;20284;-73
2023/03/28 00:36:25;;;;;;;7.55;1.45;;;4.00;99.90;;;;;;5013144;28;20589;-74
2023/03/28 00:38:52;;;;;;;5.78;1.73;;;4.00;99.90;;;;;;5015800;28;20162;-74
2023/03/28 00:41:23;;;;;;;3.70;1.45;;;3.90;99.90;;;;;;5024609;28;20181;-73
2023/03/28 00:43:51;;;;;;;5.65;1.55;;;3.90;99.90;;;;;;5033113;28;20180;-73
2023/03/28 00:46:31;;;;;;;2.20;1.15;;;3.90;99.90;;;;;;5031109;28;20181;-74
2023/03/28 00:49:02;;;;;;;4.68;1.35;;;3.90;99.90;;;;;;5014690;28;20615;-73
2023/03/28 00:51:35;;;;;;;4.38;1.35;;;3.90;99.90;;;;;;5004984;28;20185;-73
2023/03/28 00:54:04;;;;;;;4.95;1.25;;;3.90;99.90;;;;;;5027344;28;20204;-74
2023/03/28 00:56:33;;;;;;;4.53;1.80;;;3.90;99.90;;;;;;5034055;28;20239;-74
2023/03/28 00:59:04;;;;;;;2.60;1.20;;;3.90;99.90;;;;;;5032355;28;20199;-73
2023/03/28 01:01:29;;;;;;;2.50;1.20;;;3.80;99.90;;;;;;5037311;28;20647;-74
2023/03/28 01:04:03;;;;;;;4.93;1.10;;;3.80;99.90;;;;;;5012342;28;20182;-74
2023/03/28 01:06:34;;;;;;;6.10;1.30;;;3.80;99.90;;;;;;5012965;28;20202;-73
2023/03/28 01:09:05;;;;;;;2.50;1.10;;;3.80;99.90;;;;;;4996737;28;20257;-74
2023/03/28 01:11:35;;;;;;;3.97;1.45;;;3.80;99.90;;;;;;4988175;28;20655;-74
2023/03/28 01:14:03;;;;;;;4.57;1.30;;;3.70;99.90;;;;;;4997013;28;20198;-74
2023/03/28 01:16:32;;;;;;;7.78;1.98;;;3.70;99.90;;;;;;4996766;28;20194;-79
2023/03/28 01:19:01;;;;;;;3.65;1.25;;;3.70;99.90;;;;;;5013282;28;20703;-79
2023/03/28 01:21:59;;;;;;;5.22;2.45;;;3.70;99.90;;;;;;5005269;28;20254;-79
2023/03/28 01:25:00;;;;;;;4.22;1.70;;;3.70;99.90;;;;;;4996896;28;20178;-79
2023/03/28 01:27:53;;;;;;;8.60;1.63;;;3.70;99.90;;;;;;4996998;28;20202;-79
2023/03/28 01:30:41;;;;;;;7.60;2.03;;;3.70;99.90;;;;;;5000789;28;20294;-80
2023/03/28 01:34:13;;;;;;;5.18;2.10;;;3.70;99.90;;;;;;4999975;28;20321;-80
2023/03/28 01:37:00;;;;;;;5.90;1.42;;;3.60;99.90;;;;;;4996498;28;20248;-79
2023/03/28 01:39:41;;;;;;;7.25;2.10;;;3.60;99.90;;;;;;4996281;28;20178;-79
2023/03/28 01:42:55;;;;;;;7.43;1.40;;;3.60;99.90;;;;;;5013856;28;20685;-80
2023/03/28 01:45:39;;;;;;;5.00;1.50;;;3.60;99.90;;;;;;5007986;28;20281;-79
2023/03/28 01:48:20;;;;;;;5.78;1.88;;;3.60;99.90;;;;;;4992004;28;20208;-80
2023/03/28 01:50:52;;;;;;;3.00;1.25;;;3.50;99.90;;;;;;5013026;28;20531;-80
2023/03/28 01:53:47;;;;;;;3.17;1.52;;;3.50;99.90;;;;;;4996465;28;20549;-79
2023/03/28 01:56:29;;;;;;;4.63;1.77;;;3.40;99.90;;;;;;5012894;28;20197;-80
2023/03/28 01:59:05;;;;;;;5.28;1.77;;;3.40;99.90;;;;;;4996367;28;20511;-80
2023/03/28 02:02:05;;;;;;;2.83;1.50;;;3.40;99.90;;;;;;5012624;28;20171;-79
2023/03/28 02:04:34;;;;;;;5.03;1.73;;;3.30;99.90;;;;;;4996507;28;20174;-79
2023/03/28 02:07:02;;;;;;;3.75;1.30;;;3.30;99.90;;;;;;5000951;28;20336;-80
2023/03/28 02:09:34;;;;;;;2.70;1.30;;;3.30;99.90;;;;;;4996632;28;20201;-80
2023/03/28 02:12:14;;;;;;;3.15;1.50;;;3.30;99.90;;;;;;5012099;28;20189;-80
2023/03/28 02:14:59;;;;;;;4.75;1.33;;;3.30;99.90;;;;;;5013253;28;20213;-80
2023/03/28 02:17:49;;;;;;;3.75;1.30;;;3.20;99.90;;;;;;5012785;28;20201;-80
2023/03/28 02:20:39;;;;;;;2.58;1.30;;;3.20;99.90;;;;;;5012591;28;20205;-80
2023/03/28 02:23:29;;;;;;;2.08;1.10;;;3.20;99.90;;;;;;4995937;28;20170;-79
2023/03/28 02:26:11;;;;;;;3.10;1.30;;;3.20;99.90;;;;;;4996111;28;20213;-80
2023/03/28 02:28:56;;;;;;;2.63;1.45;;;3.20;99.90;;;;;;5013001;28;20618;-80
2023/03/28 02:31:49;;;;;;;7.07;1.42;;;3.20;99.90;;;;;;5010043;28;20185;-80
2023/03/28 02:34:15;;;;;;;6.18;1.48;;;3.20;99.90;;;;;;5012214;28;20225;-80
2023/03/28 02:36:52;;;;;;;3.42;1.15;;;3.20;99.90;;;;;;4995821;28;20191;-80
2023/03/28 02:39:56;;;;;;;2.55;1.10;;;3.10;99.90;;;;;;5011961;28;20239;-80
2023/03/28 02:42:39;;;;;;;2.42;1.20;;;3.10;99.90;;;;;;5003226;28;20174;-79
2023/03/28 02:45:38;;;;;;;2.60;1.25;;;3.10;99.90;;;;;;5015761;28;20205;-79
2023/03/28 02:48:32;;;;;;;4.38;1.10;;;3.10;99.90;;;;;;5012843;28;20313;-79
2023/03/28 02:51:19;;;;;;;3.40;1.70;;;3.10;99.90;;;;;;5014674;28;20170;-80
2023/03/28 02:53:58;;;;;;;6.90;1.50;;;3.10;99.90;;;;;;5012936;28;20226;-80
2023/03/28 02:56:51;;;;;;;2.78;1.10;;;3.10;99.90;;;;;;4996969;28;20212;-79
2023/03/28 02:59:42;;;;;;;2.97;1.10;;;3.10;99.90;;;;;;4996694;28;20205;-79
2023/03/28 03:02:08;;;;;;;3.40;1.27;;;3.00;99.90;;;;;;4997438;28;20166;-78
2023/03/28 03:04:34;;;;;;;2.17;1.40;;;3.00;99.90;;;;;;5014283;28;20182;-79
2023/03/28 03:07:01;;;;;;;4.00;1.60;;;3.00;99.90;;;;;;4997862;28;20190;-79
2023/03/28 03:09:28;;;;;;;3.65;1.30;;;3.00;99.90;;;;;;4997832;28;20616;-78
2023/03/28 03:11:54;;;;;;;2.70;1.20;;;3.00;99.90;;;;;;5013024;28;20194;-78
2023/03/28 03:14:20;;;;;;;3.83;1.57;;;3.00;99.90;;;;;;5013530;28;20264;-79
2023/03/28 03:16:47;;;;;;;3.38;1.30;;;3.00;99.90;;;;;;4996206;28;20258;-80
2023/03/28 03:19:18;;;;;;;6.40;1.10;;;3.00;99.90;;;;;;5011821;28;20657;-80
2023/03/28 03:21:44;;;;;;;3.58;1.10;;;3.00;99.90;;;;;;4995380;28;20194;-80
2023/03/28 03:24:10;;;;;;;5.93;1.10;;;3.00;99.90;;;;;;4994672;28;20631;-80
2023/03/28 03:26:40;;;;;;;4.88;1.15;;;3.00;99.90;;;;;;5010810;28;20708;-80
2023/03/28 03:29:09;;;;;;;5.20;1.40;;;3.00;99.90;;;;;;4993989;28;20174;-80
2023/03/28 03:31:35;;;;;;;2.33;0.93;;;3.00;99.90;;;;;;4994119;28;20185;-80
2023/03/28 03:34:20;;;;;;;4.10;0.88;;;3.00;99.90;;;;;;5018048;28;20216;-80
2023/03/28 03:36:54;;;;;;;3.05;1.20;;;2.90;99.90;;;;;;5030274;28;20255;-80
2023/03/28 03:39:21;;;;;;;3.88;1.08;;;2.90;99.90;;;;;;5026524;28;20181;-80
2023/03/28 03:41:47;;;;;;;2.70;1.10;;;2.90;99.90;;;;;;5018860;28;20287;-80
2023/03/28 03:44:13;;;;;;;8.70;1.85;;;2.90;99.90;;;;;;5029841;28;20177;-77
2023/03/28 03:46:38;;;;;;;4.47;1.17;;;2.90;99.90;;;;;;5029887;28;20297;-77
2023/03/28 03:49:04;;;;;;;7.80;1.70;;;2.90;99.90;;;;;;5029558;28;20628;-76
2023/03/28 03:51:32;;;;;;;10.30;1.50;;;2.90;99.90;;;;;;5029404;28;20889;-77
2023/03/28 03:53:58;;;;;;;3.83;1.05;;;2.90;99.90;;;;;;5013297;28;20197;-77
2023/03/28 03:56:33;;;;;;;6.05;1.20;;;2.90;99.90;;;;;;5013083;28;20295;-77
2023/03/28 03:58:59;;;;;;;3.50;1.38;;;2.90;99.90;;;;;;5034353;28;20169;-77
2023/03/28 04:01:29;;;;;;;9.15;1.33;;;2.90;99.90;;;;;;5012400;28;20176;-78
2023/03/28 04:04:07;;;;;;;4.47;1.38;;;2.90;99.90;;;;;;5029330;28;20174;-77
2023/03/28 04:06:49;;;;;;;1.85;1.00;;;2.90;99.90;;;;;;4998613;28;20194;-77
2023/03/28 04:09:15;;;;;;;4.77;1.27;;;2.90;99.90;;;;;;5030845;28;20172;-77
2023/03/28 04:11:54;;;;;;;4.80;1.20;;;2.90;99.90;;;;;;5028118;28;20332;-77
2023/03/28 04:14:21;;;;;;;2.72;1.23;;;2.90;99.90;;;;;;5003506;28;20209;-77
2023/03/28 04:16:50;;;;;;;2.70;1.13;;;2.90;99.90;;;;;;5009424;28;20191;-77
2023/03/28 04:19:17;;;;;;;3.25;1.30;;;2.90;99.90;;;;;;4993079;28;20950;-77
2023/03/28 04:21:46;;;;;;;6.65;1.60;;;2.90;99.90;;;;;;5021636;28;20180;-76
2023/03/28 04:24:16;;;;;;;5.80;1.50;;;2.90;99.90;;;;;;4989999;28;20546;-76
2023/03/28 04:26:54;;;;;;;4.60;1.42;;;2.90;99.90;;;;;;4974103;28;20194;-74
2023/03/28 04:29:29;;;;;;;6.20;1.23;;;2.90;99.90;;;;;;4989595;28;20214;-74
2023/03/28 04:32:15;;;;;;;4.20;1.45;;;2.90;99.90;;;;;;4989677;28;20639;-74
2023/03/28 04:34:59;;;;;;;5.82;1.55;;;2.90;99.90;;;;;;4990855;28;20663;-74
2023/03/28 04:37:26;;;;;;;9.00;1.75;;;2.90;99.90;;;;;;5009472;28;20195;-74
2023/03/28 04:39:55;;;;;;;6.68;1.55;;;2.90;99.90;;;;;;5006133;28;20175;-74
2023/03/28 04:42:41;;;;;;;3.47;1.42;;;2.90;99.90;;;;;;4989671;28;20182;-74
2023/03/28 04:45:08;;;;;;;4.73;1.40;;;2.90;99.90;;;;;;4990879;28;20175;-74
2023/03/28 04:47:38;;;;;;;4.40;1.88;;;2.90;99.90;;;;;;5006339;28;20630;-74
2023/03/28 04:50:07;;;;;;;8.18;1.60;;;2.90;99.90;;;;;;4989556;28;20179;-74
2023/03/28 04:52:35;;;;;;;3.78;1.60;;;2.90;99.90;;;;;;4989650;28;20175;-75
2023/03/28 04:55:01;;;;;;;4.27;1.60;;;2.90;99.90;;;;;;4989549;28;20305;-74
2023/03/28 04:57:27;;;;;;;2.77;1.43;;;2.90;99.90;;;;;;5020329;28;20747;-74
2023/03/28 05:00:06;;;;;;;5.53;1.75;;;2.90;99.90;;;;;;5004568;28;21410;-75
2023/03/28 05:03:13;;;;;;;2.88;2.05;;;2.90;99.90;;;;;;4992470;28;20368;-75
2023/03/28 05:05:51;;;;;;;2.85;1.63;;;2.90;99.90;;;;;;5027776;28;20548;-78
2023/03/28 05:08:27;;;;;;;4.90;1.63;;;2.90;99.90;;;;;;4995618;28;20208;-77
2023/03/28 05:10:54;;;;;;;3.88;1.80;;;2.90;99.90;;;;;;4992888;28;20170;-78
2023/03/28 05:13:20;;;;;;;3.17;1.48;;;2.90;99.90;;;;;;5009351;28;20178;-79
2023/03/28 05:15:58;;;;;;;6.60;1.65;;;2.90;99.90;;;;;;5016575;28;20200;-78
2023/03/28 05:18:47;;;;;;;3.25;1.55;;;3.00;99.90;;;;;;5013642;28;20426;-78
2023/03/28 05:21:15;;;;;;;5.82;1.65;;;2.90;99.90;;;;;;4993084;28;20171;-80
2023/03/28 05:23:41;;;;;;;6.50;1.73;;;2.90;99.90;;;;;;4993573;28;20254;-80
2023/03/28 05:26:16;;;;;;;3.30;1.85;;;2.90;99.90;;;;;;4993795;28;20583;-77
2023/03/28 05:28:42;;;;;;;4.63;2.00;;;2.90;99.90;;;;;;4993112;28;20163;-77
2023/03/28 05:31:08;;;;;;;3.90;1.60;;;2.90;99.90;;;;;;5010175;28;20229;-77
2023/03/28 05:33:34;;;;;;;6.38;1.80;;;2.90;99.90;;;;;;4980187;28;20639;-77
2023/03/28 05:36:01;;;;;;;3.67;1.92;;;2.90;99.90;;;;;;4996465;28;20198;-79
2023/03/28 05:38:32;;;;;;;2.75;1.55;;;2.90;99.90;;;;;;4996382;28;20222;-78
2023/03/28 05:41:03;;;;;;;6.88;1.95;;;2.90;99.90;;;;;;5010032;28;20183;-78
2023/03/28 05:43:29;;;;;;;4.10;1.60;;;2.90;99.90;;;;;;4980698;28;20174;-80
2023/03/28 05:45:55;;;;;;;4.60;2.05;;;3.00;99.90;;;;;;4995958;28;20686;-80
2023/03/28 05:48:28;;;;;;;5.90;2.20;;;3.00;99.90;;;;;;5011558;28;20225;-80
2023/03/28 05:50:53;;;;;;;6.07;2.13;;;3.00;99.90;;;;;;5011602;28;20785;-80
2023/03/28 05:53:20;;;;;;;4.82;1.95;;;3.00;99.90;;;;;;5016849;28;20209;-79
2023/03/28 05:55:47;;;;;;;6.80;2.00;;;3.00;99.90;;;;;;4979607;28;20233;-80
2023/03/28 05:58:13;;;;;;;7.30;1.58;;;3.10;99.90;;;;;;4995861;28;20194;-80
2023/03/28 06:00:41;;;;;;;6.75;2.03;;;3.10;99.90;;;;;;4996059;28;20173;-81
2023/03/28 06:03:08;;;;;;;9.13;2.55;;;3.10;99.90;;;;;;4995838;28;20655;-79
2023/03/28 06:05:37;;;;;;;4.47;1.92;;;3.20;99.90;;;;;;4991221;28;20187;-80
2023/03/28 06:08:09;;;;;;;5.43;1.98;;;3.20;99.90;;;;;;4975877;28;20187;-80
2023/03/28 06:10:35;;;;;;;6.65;1.70;;;3.20;99.90;;;;;;4992466;28;20516;-81
2023/03/28 06:13:18;;;;;;;7.93;1.45;;;3.30;99.90;;;;;;4975732;28;20174;-81
2023/03/28 06:15:45;;;;;;;6.60;1.98;;;3.40;99.90;;;;;;4976402;28;20206;-80
2023/03/28 06:18:11;;;;;;;6.27;2.30;;;3.40;99.90;;;;;;4975829;28;20198;-81
2023/03/28 06:20:43;;;;;;;7.00;1.80;;;3.50;99.90;;;;;;4976312;28;20182;-81
2023/03/28 06:23:09;;;;;;;6.35;1.98;;;3.50;99.90;;;;;;4959505;28;20167;-81
2023/03/28 06:25:35;;;;;;;4.13;2.00;;;3.60;99.90;;;;;;4976062;28;20258;-83
2023/03/28 06:28:01;;;;;;;6.43;2.22;;;3.70;99.90;;;;;;4976011;28;21230;-82
2023/03/28 06:30:28;;;;;;;3.92;1.58;;;3.80;99.90;;;;;;4964272;28;20187;-82
2023/03/28 06:32:54;;;;;;;5.85;2.17;;;3.80;99.90;;;;;;4992132;28;20554;-82
2023/03/28 06:35:20;;;;;;;4.40;2.07;;;3.90;99.90;;;;;;4992071;28;20309;-81
2023/03/28 06:37:46;;;;;;;4.80;1.63;;;4.00;99.90;;;;;;4977484;28;20198;-82
2023/03/28 06:40:15;;;;;;;4.85;2.50;;;4.10;99.90;;;;;;4977239;28;20593;-81
2023/03/28 06:42:42;;;;;;;3.20;1.60;;;4.20;99.90;;;;;;4975888;28;20175;-82
2023/03/28 06:45:19;;;;;;;3.70;1.90;;;4.30;99.90;;;;;;4977189;28;20171;-81
2023/03/28 06:48:02;;;;;;;7.72;1.60;;;4.40;99.90;;;;;;4992125;28;20201;-80
2023/03/28 06:51:01;;;;;;;3.55;1.15;;;4.60;99.90;;;;;;4958695;28;20186;-80
2023/03/28 06:53:27;;;;;;;3.80;1.55;;;4.70;99.90;;;;;;4991846;28;20636;-79
2023/03/28 06:55:53;;;;;;;4.30;1.67;;;4.80;99.90;;;;;;4975382;28;20262;-80
2023/03/28 06:58:21;;;;;;;7.90;2.30;;;4.90;99.90;;;;;;4970950;28;20745;-79
2023/03/28 07:00:53;;;;;;;4.13;1.77;;;5.10;99.90;;;;;;4966963;28;20179;-79
2023/03/28 07:03:37;;;;;;;4.30;1.88;;;5.20;99.90;;;;;;4990936;28;20171;-80
2023/03/28 07:06:06;;;;;;;5.78;2.03;;;5.30;99.90;;;;;;4991640;28;20209;-79
2023/03/28 07:08:34;;;;;;;8.63;3.03;;;5.40;99.90;;;;;;4982178;28;20178;-79
2023/03/28 07:11:00;;;;;;;8.70;2.08;;;5.60;99.90;;;;;;4993032;28;20267;-79
2023/03/28 07:13:26;;;;;;;3.80;1.65;;;5.80;99.90;;;;;;4974244;28;20178;-78
2023/03/28 07:16:13;;;;;;;3.72;2.38;;;6.20;99.90;;;;;;4991175;28;20207;-79
2023/03/28 07:18:40;;;;;;;4.78;1.77;;;6.90;99.90;;;;;;4992203;28;20167;-78
2023/03/28 07:21:09;;;;;;;6.05;2.33;;;7.70;99.90;;;;;;4991268;28;20170;-80
2023/03/28 07:23:35;;;;;;;4.85;1.90;;;8.70;99.90;;;;;;4974816;28;20258;-80
2023/03/28 07:26:02;;;;;;;5.93;2.47;;;9.70;99.90;;;;;;4975248;28;20274;-80
2023/03/28 07:28:28;;;;;;;5.63;2.37;;;10.80;99.90;;;;;;4975119;28;20194;-81
2023/03/28 07:30:55;;;;;;;4.30;1.87;;;11.90;99.90;;;;;;4990860;28;20597;-82
2023/03/28 07:33:21;;;;;;;7.70;2.37;;;13.10;99.90;;;;;;4975227;28;20570;-81
2023/03/28 07:35:47;;;;;;;5.63;1.83;;;14.20;99.90;;;;;;4992638;28;21061;-82
2023/03/28 07:38:13;;;;;;;5.10;1.43;;;15.40;99.90;;;;;;4992713;28;20606;-81
2023/03/28 07:40:48;;;;;;;5.10;2.40;;;16.10;99.90;;;;;;4990676;28;20581;-81
2023/03/28 07:43:14;;;;;;;6.30;1.73;;;16.90;99.90;;;;;;4991459;28;20582;-81
2023/03/28 07:45:40;;;;;;;5.80;2.17;;;17.60;99.90;;;;;;4978276;28;20632;-82
2023/03/28 07:48:06;;;;;;;6.63;1.70;;;18.30;99.90;;;;;;4990834;28;20626;-81
2023/03/28 07:50:32;;;;;;;5.87;1.83;;;19.10;99.90;;;;;;4991162;28;20559;-82
2023/03/28 07:52:59;;;;;;;4.07;1.83;;;19.70;99.90;;;;;;4974218;28;20590;-82
2023/03/28 07:55:29;;;;;;;5.53;1.63;;;20.30;99.90;;;;;;4991220;28;20740;-81
2023/03/28 07:57:55;;;;;;;4.60;1.90;;;20.70;99.90;;;;;;4968265;28;20642;-80
2023/03/28 08:00:26;;;;;;;11.57;2.00;;;21.00;99.90;;;;;;4990676;28;20590;-80
2023/03/28 08:03:11;;;;;;;3.90;1.47;;;21.20;99.90;;;;;;4990140;28;20598;-82
2023/03/28 08:05:38;;;;;;;3.10;1.70;;;21.60;99.90;;;;;;4990455;28;20638;-80
2023/03/28 08:08:07;;;;;;;4.90;1.40;;;22.00;99.90;;;;;;5006839;28;21008;-80
2023/03/28 08:10:35;;;;;;;5.00;1.33;;;22.40;99.90;;;;;;4974194;28;20587;-81
2023/03/28 08:13:01;;;;;;;7.03;1.30;;;22.90;99.90;;;;;;4989845;28;20590;-82
2023/03/28 08:15:27;;;;;;;4.43;1.70;;;23.40;99.90;;;;;;4973774;28;20653;-82
2023/03/28 08:17:53;;;;;;;8.17;2.00;;;23.70;99.90;;;;;;4990551;28;20675;-82
2023/03/28 08:20:20;;;;;;;9.40;2.10;;;23.90;99.90;;;;;;5006080;28;20623;-83
2023/03/28 08:23:09;;;;;;;5.93;1.73;;;24.10;95.40;;;;;;4985582;28;20629;-82
2023/03/28 08:26:13;;;;;;;7.00;1.40;;;24.10;95.60;;;;;;4965198;28;20638;-82
2023/03/28 08:28:44;;;;;;;8.70;1.53;;;24.40;95.50;;;;;;4987137;28;21001;-82
2023/03/28 08:31:13;;;;;;;4.90;1.20;;;24.60;94.30;;;;;;4953589;28;20602;-81
2023/03/28 08:33:40;;;;;;;4.20;1.30;;;24.90;93.30;;;;;;4986947;28;20242;-82
2023/03/28 08:36:09;;;;;;;5.50;1.40;;;25.10;93.00;;;;;;4989445;28;20689;-82
2023/03/28 08:38:35;;;;;;;4.33;1.20;;;25.40;92.20;;;;;;4974179;28;20580;-82
2023/03/28 08:41:23;;;;;;;5.07;1.10;;;25.80;92.40;;;;;;4989982;28;20629;-82
2023/03/28 08:44:30;;;;;;;4.27;1.00;;;26.20;90.00;;;;;;4959060;28;20592;-81
2023/03/28 08:47:13;;;;;;;4.33;1.00;;;26.60;90.10;;;;;;4973615;28;20664;-82
2023/03/28 08:50:06;;;;;;;1.90;0.80;;;27.00;85.60;;;;;;4991207;28;21081;-82
2023/03/28 08:52:32;;;;;;;4.40;1.00;;;27.10;84.80;;;;;;4988081;28;20630;-82
2023/03/28 08:55:26;;;;;;;4.20;1.00;;;26.90;80.70;;;;;;4993134;28;20812;-83
2023/03/28 08:57:55;;;;;;;1.97;0.93;;;26.30;73.50;;;;;;4977723;28;20637;-84
2023/03/28 09:00:32;;;;;;;3.50;1.33;;;25.50;72.90;;;;;;5006811;28;20581;-83
2023/03/28 09:02:59;;;;;;;5.20;0.80;;;24.90;71.30;;;;;;4996807;28;20615;-82
2023/03/28 09:05:44;;;;;;;2.60;0.80;;;24.40;71.70;;;;;;5012566;28;20688;-82
2023/03/28 09:08:20;;;;;;;2.73;1.00;;;24.10;70.20;;;;;;5013590;28;20621;-83
2023/03/28 09:10:58;;;;;;;5.83;0.90;;;23.70;71.30;;;;;;4980027;28;20688;-82
2023/03/28 09:14:07;;;;;;;4.33;1.50;;;23.30;69.30;;;;;;5029212;28;20588;-82
2023/03/28 09:16:50;;;;;;;6.23;1.37;;;22.40;64.50;;;;;;5000699;28;21267;-82
2023/03/28 09:20:12;;;;;;;4.17;1.00;;;21.60;65.70;;;;;;4977171;28;20573;-83
2023/03/28 09:23:13;;;;;;;3.20;0.90;;;21.10;67.10;;;;;;4992741;28;20607;-83
2023/03/28 09:26:11;;;;;;;3.07;0.93;;;20.70;67.30;;;;;;4994153;28;20594;-83
2023/03/28 09:29:10;;;;;;;3.77;1.20;;;20.60;70.40;;;;;;4960828;28;20574;-82
2023/03/28 09:31:44;;;;;;;4.13;0.90;;;20.70;69.20;;;;;;5008780;28;20570;-81
2023/03/28 09:34:21;;;;;;;2.73;0.80;;;21.00;72.60;;;;;;4993000;28;20652;-83
2023/03/28 09:36:55;;;;;;;3.57;0.97;;;21.20;72.00;;;;;;4979317;28;20665;-82
2023/03/28 09:39:36;;;;;;;5.13;0.90;;;21.50;73.60;;;;;;4976428;28;21360;-83
2023/03/28 09:42:42;;;;;;;2.80;0.80;;;21.70;69.80;;;;;;4960661;28;20628;-83
2023/03/28 09:45:42;;;;;;;4.60;1.10;;;22.00;72.00;;;;;;4961351;28;20668;-82
2023/03/28 09:48:46;;;;;;;3.30;1.10;;;22.30;70.90;;;;;;4968545;28;20750;-83
2023/03/28 09:51:17;;;;;;;3.50;0.83;;;22.30;70.70;;;;;;4948144;28;20721;-84
2023/03/28 09:53:44;;;;;;;3.73;0.90;;;22.30;70.50;;;;;;4954870;28;20641;-84
2023/03/28 09:56:49;;;;;;;4.33;0.80;;;22.40;70.40;;;;;;4993482;28;21287;-85
2023/03/28 09:59:32;;;;;;;3.30;0.80;;;22.60;67.10;;;;;;4972725;28;20721;-83
2023/03/28 10:02:31;;;;;;;3.40;0.90;;;22.80;69.60;;;;;;4972075;28;20936;-83
2023/03/28 10:05:00;;;;;;;3.10;0.77;;;22.90;64.80;;;;;;4989207;28;20591;-83
2023/03/28 10:07:41;;;;;;;1.90;0.70;;;23.00;67.80;;;;;;4972764;28;20623;-82
2023/03/28 10:10:28;;;;;;;4.23;0.90;;;23.20;64.50;;;;;;4973484;28;21218;-83
2023/03/28 10:13:03;;;;;;;3.30;0.90;;;23.30;66.40;;;;;;4966970;28;20738;-83
2023/03/28 10:15:34;;;;;;;2.23;0.63;;;23.30;63.30;;;;;;4993650;28;20656;-83
2023/03/28 10:18:17;;;;;;;1.50;0.70;;;23.30;63.00;;;;;;4991735;28;20621;-85
2023/03/28 10:20:46;;;;;;;1.87;0.57;;;23.20;62.00;;;;;;4972854;28;20603;-83
2023/03/28 10:23:13;;;;;;;1.73;0.60;;;23.00;61.50;;;;;;4971713;28;20932;-84
2023/03/28 10:25:48;;;;;;;2.00;0.60;;;22.80;60.30;;;;;;4956906;28;20700;-83
2023/03/28 10:28:19;;;;;;;2.53;0.80;;;22.50;58.80;;;;;;4956224;28;20680;-84
2023/03/28 10:30:53;;;;;;;2.43;0.50;;;22.20;58.40;;;;;;4974099;28;20591;-83
2023/03/28 10:33:25;;;;;;;3.73;0.60;;;21.50;54.60;;;;;;4955930;28;21155;-81
2023/03/28 10:36:28;;;;;;;1.47;0.60;;;20.90;55.70;;;;;;4972400;28;20950;-81
2023/03/28 10:38:55;;;;;;;2.50;0.60;;;20.30;54.50;;;;;;4955647;28;20586;-83
2023/03/28 10:41:24;;;;;;;2.53;0.57;;;20.20;57.30;;;;;;4972018;28;20637;-83
2023/03/28 10:44:29;;;;;;;2.23;0.80;;;20.20;58.00;;;;;;4971875;28;20599;-85
2023/03/28 10:47:20;;;;;;;2.23;0.60;;;20.20;57.50;;;;;;4966777;28;20774;-82
2023/03/28 10:50:02;;;;;;;2.23;0.70;;;20.20;58.20;;;;;;4976749;28;20751;-83
2023/03/28 10:52:33;;;;;;;1.83;0.53;;;19.90;56.60;;;;;;4993579;28;20640;-84
2023/03/28 10:55:23;;;;;;;1.93;0.60;;;19.60;56.30;;;;;;4991150;28;20997;-84
2023/03/28 10:58:13;;;;;;;3.23;0.60;;;19.50;56.20;;;;;;4975236;28;20622;-82
2023/03/28 11:01:16;;;;;;;2.43;0.60;;;19.20;54.70;;;;;;4992313;28;21253;-73
2023/03/28 11:04:00;;;;;;;2.57;0.67;;;18.60;49.80;;;;;;4975281;28;20676;-74
2023/03/28 11:06:45;;;;;;;1.50;0.70;;;17.70;50.60;;;;;;4990651;28;20605;-74
2023/03/28 11:09:23;;;;;;;3.57;0.70;;;16.90;46.40;;;;;;4974941;28;20645;-74
2023/03/28 11:12:27;;;;;;;2.07;0.70;;;16.40;50.80;;;;;;4991221;28;20601;-74
2023/03/28 11:15:08;;;;;;;1.97;0.60;;;16.30;53.50;;;;;;4991052;28;20974;-74
2023/03/28 11:17:49;;;;;;;2.90;0.70;;;16.30;54.00;;;;;;4991326;28;20615;-73
2023/03/28 11:20:16;;;;;;;2.13;0.60;;;16.40;54.70;;;;;;4992243;28;20602;-74
2023/03/28 11:23:19;;;;;;;1.40;0.60;;;16.40;55.60;;;;;;4970989;28;20607;-74
2023/03/28 11:26:12;;;;;;;2.43;0.70;;;16.50;55.40;;;;;;4971413;28;20594;-74
2023/03/28 11:29:05;;;;;;;2.10;0.50;;;16.70;56.30;;;;;;4972173;28;20646;-73
2023/03/28 11:31:41;;;;;;;1.90;0.60;;;16.80;56.70;;;;;;4971219;28;20583;-74
2023/03/28 11:34:35;;;;;;;1.60;0.60;;;16.80;55.80;;;;;;4970842;28;20678;-74
2023/03/28 11:37:09;;;;;;;11.63;1.70;;;16.60;52.80;;;;;;4971394;28;20619;-73
2023/03/28 11:39:42;;;;;;;3.80;0.70;;;16.10;52.60;;;;;;4954813;28;20597;-74
2023/03/28 11:42:37;;;;;;;2.70;0.70;;;15.60;52.60;;;;;;4955857;28;20574;-74
2023/03/28 11:45:11;;;;;;;5.87;0.70;;;15.40;53.10;;;;;;4991309;28;20590;-74
2023/03/28 11:47:46;;;;;;;3.83;0.73;;;15.20;51.50;;;;;;4974545;28;20613;-73
2023/03/28 11:50:13;;;;;;;2.57;0.80;;;15.00;52.80;;;;;;4990466;28;20590;-73
2023/03/28 11:53:20;;;;;;;2.17;0.70;;;14.80;53.30;;;;;;4976062;28;20983;-73
2023/03/28 11:56:08;;;;;;;3.60;0.70;;;14.60;53.60;;;;;;4959059;28;20648;-74
2023/03/28 11:59:02;;;;;;;2.27;0.60;;;14.60;54.50;;;;;;4989967;28;20585;-74
2023/03/28 12:01:32;;;;;;;3.53;0.70;;;14.80;55.50;;;;;;4970346;28;21143;-74
2023/03/28 12:04:17;;;;;;;1.90;0.63;;;15.00;56.70;;;;;;4986788;28;20626;-73
2023/03/28 12:06:52;;;;;;;1.70;0.60;;;15.40;57.10;;;;;;4990124;28;20624;-74
2023/03/28 12:09:52;;;;;;;1.50;0.60;;;15.90;59.30;;;;;;4973426;28;20701;-74
2023/03/28 12:12:33;;;;;;;3.53;0.90;;;16.40;59.00;;;;;;4989831;28;20574;-74
2023/03/28 12:15:17;;;;;;;2.63;0.70;;;17.00;60.80;;;;;;4990858;28;20637;-74
2023/03/28 12:18:03;;;;;;;2.73;1.10;;;17.50;61.00;;;;;;4974053;28;21039;-74
2023/03/28 12:20:42;;;;;;;1.60;0.70;;;17.90;59.40;;;;;;4955222;28;21048;-74
2023/03/28 12:23:41;;;;;;;4.50;1.00;;;17.70;57.90;;;;;;4990135;28;20588;-74
2023/03/28 12:26:56;;;;;;;1.80;0.67;;;17.60;56.60;;;;;;4994210;28;20598;-74
2023/03/28 12:29:35;;;;;;;2.07;0.80;;;17.50;56.70;;;;;;4994042;28;20586;-73
2023/03/28 12:32:20;;;;;;;1.83;0.80;;;17.60;57.30;;;;;;5009757;28;20589;-73
2023/03/28 12:34:51;;;;;;;2.27;1.27;;;17.70;58.60;;;;;;4993931;28;20638;-73
2023/03/28 12:37:54;;;;;;;3.87;0.90;;;17.90;58.40;;;;;;4994118;28;20730;-73
2023/03/28 12:40:27;;;;;;;3.80;0.90;;;18.00;58.00;;;;;;4993632;28;20688;-73
2023/03/28 12:42:56;;;;;;;3.20;0.90;;;18.10;57.50;;;;;;4979873;28;20589;-73
2023/03/28 12:45:29;;;;;;;4.37;1.17;;;18.10;57.90;;;;;;4993733;28;20648;-73
2023/03/28 12:48:02;;;;;;;3.20;1.20;;;18.00;53.80;;;;;;4993359;28;20617;-73
2023/03/28 12:51:13;;;;;;;3.30;1.20;;;17.70;53.80;;;;;;4977196;28;20602;-74
2023/03/28 12:53:45;;;;;;;5.43;1.00;;;17.00;49.90;;;;;;4950378;28;20610;-73
2023/03/28 12:56:13;;;;;;;2.87;0.90;;;16.60;51.80;;;;;;4994454;28;20744;-73
2023/03/28 12:58:39;;;;;;;3.40;0.90;;;16.20;50.30;;;;;;4993618;28;20596;-73
2023/03/28 13:01:46;;;;;;;5.10;1.10;;;16.00;51.80;;;;;;4992886;28;20598;-74
2023/03/28 13:04:44;;;;;;;2.27;1.00;;;15.80;52.60;;;;;;4993218;28;20601;-73
2023/03/28 13:07:53;;;;;;;2.83;0.87;;;15.70;50.80;;;;;;4977174;28;20629;-73
2023/03/28 13:11:03;;;;;;;3.23;0.90;;;15.30;49.00;;;;;;4982508;28;20629;-73
2023/03/28 13:13:59;;;;;;;2.27;0.80;;;15.00;50.00;;;;;;4993156;28;20597;-73
2023/03/28 13:16:46;;;;;;;4.33;1.00;;;14.70;51.00;;;;;;4992796;28;20629;-73
2023/03/28 13:19:14;;;;;;;5.60;1.00;;;14.60;51.10;;;;;;4996105;28;20640;-73
2023/03/28 13:21:57;;;;;;;2.90;1.30;;;14.50;51.90;;;;;;4993306;28;20653;-73
2023/03/28 13:24:35;;;;;;;3.10;1.30;;;14.20;50.20;;;;;;4993201;28;20906;-73
2023/03/28 13:27:26;;;;;;;3.70;1.20;;;14.10;51.30;;;;;;4993905;28;20701;-73
2023/03/28 13:30:02;;;;;;;2.27;0.87;;;14.00;51.80;;;;;;4993141;28;20586;-73
2023/03/28 13:32:39;;;;;;;2.87;0.90;;;14.00;52.30;;;;;;4993343;28;20584;-73
2023/03/28 13:35:05;;;;;;;2.30;0.80;;;14.00;52.30;;;;;;4992762;28;20648;-74
2023/03/28 13:37:46;;;;;;;2.83;0.90;;;14.10;53.50;;;;;;4990952;28;20617;-73
2023/03/28 13:41:00;;;;;;;2.30;0.80;;;14.20;53.10;;;;;;4993248;28;20601;-74
2023/03/28 13:43:38;;;;;;;3.90;1.03;;;14.30;53.30;;;;;;4975966;28;20574;-74
2023/03/28 13:46:18;;;;;;;2.13;0.80;;;14.40;53.30;;;;;;4992874;28;20590;-74